Time;durP1;ratioP1;P1;durP2;ratioP2;P2;SDS_P1;SDS_P2;PMS_P1;PMS_P2;Temp;Humidity;BMP_temperature;BMP_pressure;BME280_temperature;BME280_humidity;BME280_pressure;Samples;Min_cycle;Max_cycle;Signal;HPM_P1;HPM_P2
2023/07/20 00:05:37;;;;;;;3.15;1.85;;;17.40;99.90;;;;;;25587400;23;20083;-58
2023/07/20 00:15:39;;;;;;;5.47;2.03;;;17.50;99.90;;;;;;25587047;23;20005;-57
2023/07/20 00:25:41;;;;;;;4.55;2.10;;;17.70;99.90;;;;;;25587051;23;20083;-58
2023/07/20 00:35:42;;;;;;;4.13;2.50;;;17.80;99.90;;;;;;25586956;23;20013;-57
2023/07/20 00:45:45;;;;;;;4.13;2.45;;;17.90;99.90;;;;;;25591202;23;20009;-57
2023/07/20 00:55:46;;;;;;;4.25;2.58;;;17.80;99.90;;;;;;25593894;23;20016;-57
2023/07/20 01:06:00;;;;;;;4.60;2.80;;;17.90;99.90;;;;;;25592111;23;20001;-57
2023/07/20 01:16:02;;;;;;;4.68;2.92;;;17.60;99.90;;;;;;25632504;23;20029;-57
2023/07/20 01:26:26;;;;;;;5.68;3.25;;;16.90;99.90;;;;;;25592776;23;20008;-49
2023/07/20 01:36:32;;;;;;;6.45;3.95;;;16.60;99.90;;;;;;25627647;23;20341;-57
2023/07/20 01:46:34;;;;;;;8.05;2.85;;;16.40;99.90;;;;;;25633061;23;20507;-57
2023/07/20 01:56:35;;;;;;;6.00;2.83;;;16.10;99.90;;;;;;25590724;23;20241;-57
2023/07/20 02:06:37;;;;;;;4.80;2.78;;;15.90;99.90;;;;;;25589116;23;20040;-57
2023/07/20 02:16:39;;;;;;;6.22;2.58;;;15.90;99.90;;;;;;25591161;23;20064;-57
2023/07/20 02:26:42;;;;;;;6.45;2.70;;;15.80;99.90;;;;;;25590669;23;20075;-57
2023/07/20 02:36:43;;;;;;;5.45;3.05;;;15.90;99.90;;;;;;25588179;23;20013;-56
2023/07/20 02:46:45;;;;;;;5.25;2.90;;;16.00;99.90;;;;;;25563091;23;20013;-49
2023/07/20 02:56:47;;;;;;;6.00;2.90;;;16.20;99.90;;;;;;25588986;23;20081;-44
2023/07/20 03:06:48;;;;;;;6.00;2.80;;;16.30;99.90;;;;;;25586844;23;20001;-45
2023/07/20 03:16:50;;;;;;;3.72;2.47;;;16.40;99.90;;;;;;25588860;23;20036;-44
2023/07/20 03:26:51;;;;;;;5.78;2.45;;;16.30;99.90;;;;;;25588423;23;20016;-44
2023/07/20 03:36:53;;;;;;;3.90;2.58;;;16.40;99.90;;;;;;25586041;23;20024;-55
2023/07/20 03:46:55;;;;;;;3.78;2.40;;;16.50;99.90;;;;;;25588127;23;20372;-56
2023/07/20 03:56:56;;;;;;;3.92;2.60;;;16.60;99.90;;;;;;25587406;23;20063;-57
2023/07/20 04:06:58;;;;;;;4.32;2.40;;;16.60;99.90;;;;;;25587343;23;20032;-57
2023/07/20 04:17:00;;;;;;;4.45;2.70;;;16.60;99.90;;;;;;25587652;23;20005;-55
2023/07/20 04:27:02;;;;;;;5.10;2.47;;;16.60;99.90;;;;;;25593082;23;20009;-56
2023/07/20 04:37:04;;;;;;;5.18;2.67;;;16.70;99.90;;;;;;25593236;23;20339;-44
2023/07/20 04:47:06;;;;;;;3.72;2.40;;;16.90;99.90;;;;;;25593614;23;20017;-56
2023/07/20 04:57:13;;;;;;;3.03;2.30;;;16.90;99.90;;;;;;25591933;23;20076;-48
2023/07/20 05:07:19;;;;;;;6.00;2.72;;;17.00;99.90;;;;;;25633204;23;20044;-55
2023/07/20 05:17:21;;;;;;;4.10;2.38;;;16.90;99.90;;;;;;25593623;23;20515;-46
2023/07/20 05:27:22;;;;;;;4.70;2.10;;;16.80;99.90;;;;;;25593052;23;20004;-45
2023/07/20 05:37:24;;;;;;;5.00;2.72;;;16.90;99.90;;;;;;25591921;23;20024;-56
2023/07/20 05:47:26;;;;;;;3.92;2.35;;;17.00;99.90;;;;;;25593789;23;20028;-54
2023/07/20 05:57:28;;;;;;;5.50;2.63;;;17.20;99.90;;;;;;25592560;23;20009;-44
2023/07/20 06:07:29;;;;;;;4.80;2.63;;;17.30;99.90;;;;;;25592124;23;20009;-44
2023/07/20 06:17:31;;;;;;;3.47;2.22;;;17.50;99.90;;;;;;25591781;23;20009;-47
2023/07/20 06:27:33;;;;;;;4.47;2.40;;;17.70;99.90;;;;;;25591529;23;20005;-44
2023/07/20 06:37:35;;;;;;;4.55;2.70;;;21.10;99.90;;;;;;25590654;23;20013;-57
2023/07/20 06:47:40;;;;;;;3.40;2.50;;;23.90;95.10;;;;;;25590523;23;20005;-57
2023/07/20 06:57:42;;;;;;;3.10;2.45;;;24.80;93.50;;;;;;25590126;23;20013;-58
2023/07/20 07:07:43;;;;;;;2.88;2.33;;;25.90;92.90;;;;;;25589936;23;20068;-57
2023/07/20 07:17:45;;;;;;;3.20;2.35;;;26.80;89.90;;;;;;25588332;23;20281;-58
2023/07/20 07:27:46;;;;;;;3.40;2.38;;;27.50;88.90;;;;;;25588749;23;20083;-58
2023/07/20 07:37:48;;;;;;;2.85;2.60;;;27.60;84.60;;;;;;25588791;23;20017;-50
2023/07/20 07:47:50;;;;;;;4.00;2.80;;;27.70;83.60;;;;;;25588768;23;20087;-46
2023/07/20 07:57:52;;;;;;;3.38;2.63;;;27.50;84.50;;;;;;25592465;23;20040;-58
2023/07/20 08:07:53;;;;;;;5.13;2.40;;;27.40;82.20;;;;;;25596206;23;20155;-58
2023/07/20 08:17:55;;;;;;;5.63;2.50;;;27.80;82.70;;;;;;25594542;23;20012;-58
2023/07/20 08:27:57;;;;;;;4.05;2.72;;;28.00;91.50;;;;;;25595915;23;20009;-58
2023/07/20 08:37:58;;;;;;;6.68;2.78;;;27.80;90.20;;;;;;25594701;23;20048;-58
2023/07/20 08:48:03;;;;;;;6.25;3.40;;;28.50;89.30;;;;;;25594857;23;20005;-59
2023/07/20 08:58:08;;;;;;;4.53;3.50;;;29.10;90.90;;;;;;25594380;23;20055;-59
2023/07/20 09:08:09;;;;;;;6.55;3.17;;;29.30;90.60;;;;;;25593631;23;20385;-59
2023/07/20 09:18:11;;;;;;;4.70;3.65;;;29.10;91.40;;;;;;25594043;23;20008;-59
2023/07/20 09:28:13;;;;;;;5.78;3.38;;;29.10;90.30;;;;;;25593673;23;20380;-59
2023/07/20 09:38:15;;;;;;;4.05;3.15;;;29.00;92.20;;;;;;25592551;23;20506;-59
2023/07/20 09:48:21;;;;;;;7.07;3.75;;;29.10;91.20;;;;;;25592747;23;20009;-59
2023/07/20 09:58:28;;;;;;;6.15;3.50;;;29.30;93.00;;;;;;25633187;23;20052;-59
2023/07/20 10:08:31;;;;;;;5.75;3.70;;;29.40;91.50;;;;;;25632878;23;20008;-59
2023/07/20 10:19:01;;;;;;;4.18;3.67;;;29.50;89.30;;;;;;25592856;23;20012;-59
2023/07/20 10:29:03;;;;;;;4.45;3.80;;;30.10;91.60;;;;;;25632443;23;20008;-58
2023/07/20 10:39:05;;;;;;;5.68;3.78;;;30.40;89.00;;;;;;25590290;23;20511;-59
2023/07/20 10:49:08;;;;;;;5.22;3.83;;;30.90;91.30;;;;;;25590875;23;20005;-58
2023/07/20 10:59:38;;;;;;;6.18;4.25;;;29.90;91.30;;;;;;25590187;23;20013;-58
2023/07/20 11:09:41;;;;;;;8.15;4.93;;;27.30;94.40;;;;;;25630933;23;20005;-58
2023/07/20 11:19:43;;;;;;;7.22;5.00;;;27.10;96.50;;;;;;25589385;23;20001;-57
2023/07/20 11:29:45;;;;;;;7.90;5.28;;;27.10;96.50;;;;;;25589137;23;20005;-58
2023/07/20 11:39:48;;;;;;;7.28;6.07;;;26.30;97.70;;;;;;25588428;23;20005;-58
2023/07/20 11:49:54;;;;;;;11.35;7.30;;;26.00;98.40;;;;;;25588684;23;20005;-57
2023/07/20 11:59:57;;;;;;;10.00;7.13;;;26.30;98.90;;;;;;25629466;23;20341;-57
2023/07/20 12:10:10;;;;;;;8.32;6.45;;;28.00;97.20;;;;;;25588176;23;20514;-58
2023/07/20 12:20:12;;;;;;;13.55;8.80;;;27.60;97.40;;;;;;25628390;23;20733;-58
2023/07/20 12:30:14;;;;;;;10.80;8.85;;;26.50;99.00;;;;;;25587948;23;20028;-58
2023/07/20 12:40:16;;;;;;;12.77;11.48;;;26.50;99.30;;;;;;25588202;23;20013;-57
2023/07/20 12:50:18;;;;;;;18.58;10.60;;;25.90;99.90;;;;;;25595295;23;20000;-57
2023/07/20 13:00:20;;;;;;;11.30;9.05;;;26.60;99.30;;;;;;25594003;23;20036;-57
2023/07/20 13:10:21;;;;;;;12.05;9.77;;;25.90;99.90;;;;;;25592489;23;20433;-45
2023/07/20 13:20:23;;;;;;;12.10;8.63;;;27.10;99.90;;;;;;25592194;23;20009;-57
2023/07/20 13:30:25;;;;;;;8.63;7.68;;;29.10;97.50;;;;;;25593652;23;20005;-57
2023/07/20 13:40:26;;;;;;;11.48;8.45;;;30.60;94.70;;;;;;25593180;23;20011;-58
2023/07/20 13:50:28;;;;;;;11.38;9.52;;;30.70;94.70;;;;;;25593046;23;20056;-57
2023/07/20 14:00:32;;;;;;;11.13;9.13;;;29.00;94.40;;;;;;25590879;23;20013;-57
2023/07/20 14:10:34;;;;;;;8.35;6.45;;;27.10;96.90;;;;;;25592113;23;20424;-57
2023/07/20 14:20:36;;;;;;;8.98;7.07;;;27.60;96.80;;;;;;25591744;23;20008;-57
2023/07/20 14:30:37;;;;;;;10.15;7.47;;;26.60;98.60;;;;;;25591619;23;20005;-57
2023/07/20 14:40:39;;;;;;;9.95;7.68;;;25.90;98.70;;;;;;25591102;23;20075;-57
2023/07/20 14:50:41;;;;;;;9.30;7.50;;;27.20;96.00;;;;;;25590918;23;20079;-57
2023/07/20 15:00:42;;;;;;;9.35;6.70;;;27.70;96.80;;;;;;25590284;23;20005;-57
2023/07/20 15:10:46;;;;;;;8.88;6.18;;;28.00;94.90;;;;;;25589377;23;20436;-57
2023/07/20 15:20:53;;;;;;;10.95;7.32;;;28.00;97.60;;;;;;25589286;23;20012;-57
2023/07/20 15:31:04;;;;;;;10.05;8.00;;;29.40;95.50;;;;;;25630474;23;20005;-57
2023/07/20 15:41:08;;;;;;;12.20;8.15;;;30.10;94.40;;;;;;25589462;23;20021;-57
2023/07/20 15:51:09;;;;;;;9.93;8.10;;;29.80;94.10;;;;;;25588855;23;20063;-57
2023/07/20 16:01:11;;;;;;;10.38;6.70;;;28.80;95.20;;;;;;25588217;23;20281;-46
2023/07/20 16:11:13;;;;;;;11.73;8.65;;;26.90;97.60;;;;;;25588193;23;20012;-57
2023/07/20 16:21:14;;;;;;;10.07;7.72;;;25.10;99.90;;;;;;25594178;23;20028;-57
2023/07/20 16:31:16;;;;;;;13.05;8.93;;;24.20;99.90;;;;;;25595491;23;20387;-59
2023/07/20 16:41:18;;;;;;;13.85;8.85;;;23.60;99.90;;;;;;25595325;23;20455;-59
2023/07/20 16:51:20;;;;;;;15.20;11.30;;;23.20;99.90;;;;;;25594714;23;20064;-59
2023/07/20 17:01:21;;;;;;;19.42;9.90;;;22.70;99.90;;;;;;25593679;23;20111;-59
2023/07/20 17:11:23;;;;;;;13.55;9.90;;;21.70;99.90;;;;;;25594742;23;20020;-59
2023/07/20 17:21:24;;;;;;;17.65;11.55;;;21.00;99.90;;;;;;25591918;23;20001;-46
2023/07/20 17:31:28;;;;;;;33.25;12.52;;;20.50;99.90;;;;;;25593070;23;20009;-58
2023/07/20 17:41:31;;;;;;;19.33;13.23;;;20.00;99.90;;;;;;25593144;23;20013;-58
2023/07/20 17:51:32;;;;;;;19.40;13.25;;;19.50;99.90;;;;;;25591520;23;19997;-58
2023/07/20 18:01:34;;;;;;;19.70;14.68;;;19.20;99.90;;;;;;25592631;23;19998;-58
2023/07/20 18:11:35;;;;;;;24.58;16.20;;;18.80;99.90;;;;;;25591999;23;20001;-57
2023/07/20 18:21:37;;;;;;;22.25;15.32;;;18.50;99.90;;;;;;25591960;23;20002;-57
2023/07/20 18:31:39;;;;;;;21.27;14.25;;;18.20;99.90;;;;;;25591510;23;20087;-57
2023/07/20 18:41:41;;;;;;;16.30;12.30;;;17.80;99.90;;;;;;25590233;23;20009;-57
2023/07/20 18:51:43;;;;;;;17.35;11.95;;;17.50;99.90;;;;;;25590434;23;20001;-48
2023/07/20 19:01:46;;;;;;;15.27;11.98;;;17.10;99.90;;;;;;25590191;23;20479;-57
2023/07/20 19:11:47;;;;;;;12.55;8.25;;;16.90;99.90;;;;;;25587898;23;19997;-57
2023/07/20 19:21:51;;;;;;;12.30;8.20;;;16.50;99.90;;;;;;25588553;23;20096;-58
2023/07/20 19:31:55;;;;;;;14.27;8.60;;;16.20;99.90;;;;;;25587984;23;20436;-57
2023/07/20 19:41:57;;;;;;;12.48;7.95;;;15.90;99.90;;;;;;25587125;23;20020;-58
2023/07/20 19:51:59;;;;;;;14.18;7.78;;;15.70;99.90;;;;;;25594255;23;20024;-57
2023/07/20 20:02:01;;;;;;;13.10;9.23;;;15.70;99.90;;;;;;25602213;23;20009;-58
2023/07/20 20:12:03;;;;;;;11.07;7.88;;;15.60;99.90;;;;;;25601996;23;20323;-58
2023/07/20 20:22:06;;;;;;;8.38;6.28;;;15.50;99.90;;;;;;25602027;23;20001;-58
2023/07/20 20:32:09;;;;;;;8.80;5.32;;;15.40;99.90;;;;;;25601636;23;20499;-57
2023/07/20 20:42:11;;;;;;;8.90;5.22;;;15.40;99.90;;;;;;25601350;23;20012;-58
2023/07/20 20:52:13;;;;;;;7.03;4.65;;;15.50;99.90;;;;;;25601416;23;20024;-57
2023/07/20 21:02:18;;;;;;;7.35;4.18;;;15.50;99.90;;;;;;25597471;23;20013;-50
2023/07/20 21:12:19;;;;;;;4.70;4.20;;;15.50;99.90;;;;;;25594025;23;20032;-46
2023/07/20 21:22:21;;;;;;;8.43;5.07;;;15.50;99.90;;;;;;25592658;23;20032;-47
2023/07/20 21:32:23;;;;;;;9.15;5.15;;;15.60;99.90;;;;;;25593581;23;20005;-48
2023/07/20 21:42:24;;;;;;;9.60;6.00;;;15.80;99.90;;;;;;25593122;23;20016;-57
2023/07/20 21:52:26;;;;;;;13.98;7.53;;;16.00;99.90;;;;;;25592905;23;20005;-49
2023/07/20 22:02:28;;;;;;;12.43;7.78;;;16.30;99.90;;;;;;25592925;23;20001;-56
2023/07/20 22:12:29;;;;;;;13.93;10.85;;;16.40;99.90;;;;;;25591562;23;20004;-57
2023/07/20 22:22:31;;;;;;;16.92;11.27;;;16.40;99.90;;;;;;25591886;23;20009;-48
2023/07/20 22:32:33;;;;;;;17.35;12.25;;;16.60;99.90;;;;;;25591392;23;20001;-48
2023/07/20 22:42:35;;;;;;;17.55;10.95;;;16.60;99.90;;;;;;25590759;23;20071;-57
2023/07/20 22:52:37;;;;;;;16.15;9.50;;;16.80;99.90;;;;;;25590231;23;20507;-48
2023/07/20 23:02:42;;;;;;;13.65;8.80;;;17.00;99.90;;;;;;25590215;23;20005;-57
2023/07/20 23:12:45;;;;;;;14.43;8.35;;;17.20;99.90;;;;;;25589496;23;20013;-48
2023/07/20 23:22:48;;;;;;;11.23;8.10;;;17.20;99.90;;;;;;25589344;23;20009;-57
2023/07/20 23:32:52;;;;;;;10.63;7.25;;;17.00;99.90;;;;;;25589162;23;20081;-56
2023/07/20 23:42:53;;;;;;;14.45;7.75;;;17.10;99.90;;;;;;25588970;23;20071;-56
2023/07/20 23:52:55;;;;;;;12.43;7.80;;;17.10;99.90;;;;;;25588957;23;20012;-56
